Ortonville, MI (48462)

1:57 AM EDT on July 30, 2016 (GMT -0400)
Ortonville | | Change Station

Elev 935 ft 42.85 °N, 83.45 °W | Updated 7 seconds ago

Mostly Cloudy
Mostly Cloudy
65.3 °F
Feels Like 65.3 °F
N
1.6
Wind Variable Wind from North
Gusts 2.2 mph

Today
High -- | Low -- °F
--% Chance of Precip.
Yesterday
High -- | Low -- °F
Precip. -- in
Pressure 29.97 in
Visibility 10.0 miles
Clouds Scattered Clouds 4700 ft
Mostly Cloudy 9000 ft
Dew Point 23 °F
Humidity 20%
Rainfall 0.00 in
Snow Depth Not available.
6:23 AM 8:56 PM
Waning Crescent, 16% visible
METAR KPTK 300553Z AUTO 35005KT 10SM SCT047 BKN090 20/15 A2999 RMK AO2 SLP148 T02000150 10239 20194 58004
Pressure 29.97 in
Visibility 10.0 miles
Clouds Scattered Clouds 4700 ft
Mostly Cloudy 9000 ft
Dew Point 23 °F
Humidity 20%
Rainfall 0.00 in
Snow Depth Not available.
6:23 AM 8:56 PM
Waning Crescent, 16% visible
METAR KPTK 300553Z AUTO 35005KT 10SM SCT047 BKN090 20/15 A2999 RMK AO2 SLP148 T02000150 10239 20194 58004

10-Day Weather Forecast

Almanac

Astronomy

Jul. 30, 2016 Rise Set
Actual Time
Civil Twilight
Nautical Twilight
Astronomical Twilight
Moon
Length of Visible Light
Length of Day
Tomorrow will be .
, % of the Moon is Illuminated

Today's Extremes

State Highs State Lows

Community

WunderPhotos

Upload Photos

1,928,508 photos uploaded!

WunderBlog® & News

Nearby

Air Quality

  Air Quality AQ Index Pollutant
Not available.

Snow Depth

Station Depth Elevation

Earthquake Activity

City Distance Mag. Time & Date
Minimum magnitude displayed is 2.5.

Coastal Water Temperatures

Place Temperature

Stations

Nearby Weather Stations

Station Location Temp. Windchill Dew Point Humidity Wind Precip. Elev Updated Type
                   

Watches & Warnings

There are currently no watches in effect.